Time;durP1;ratioP1;P1;durP2;ratioP2;P2;SDS_P1;SDS_P2;PMS_P1;PMS_P2;Temp;Humidity;BMP_temperature;BMP_pressure;BME280_temperature;BME280_humidity;BME280_pressure;Samples;Min_cycle;Max_cycle;Signal;HPM_P1;HPM_P2
2023/04/28 00:01:59;;;;;;;19.90;11.80;;;4.70;1.00;;;;;;5035626;28;20199;-49
2023/04/28 00:04:25;;;;;;;19.97;13.20;;;4.60;1.00;;;;;;5035783;28;20488;-49
2023/04/28 00:06:51;;;;;;;25.27;14.40;;;4.60;72.70;;;;;;5035976;28;20223;-48
2023/04/28 00:09:16;;;;;;;21.43;13.13;;;4.60;99.90;;;;;;5035510;28;20204;-48
2023/04/28 00:11:45;;;;;;;25.00;14.50;;;4.70;99.90;;;;;;5035369;28;20186;-48
2023/04/28 00:14:11;;;;;;;27.30;14.23;;;4.70;1.00;;;;;;5035525;28;20188;-48
2023/04/28 00:16:37;;;;;;;24.33;13.80;;;4.70;1.00;;;;;;5035073;28;20444;-49
2023/04/28 00:19:02;;;;;;;24.23;13.70;;;4.80;1.00;;;;;;5035766;28;20414;-48
2023/04/28 00:21:28;;;;;;;18.17;12.57;;;4.90;1.00;;;;;;5035124;28;20175;-49
2023/04/28 00:23:54;;;;;;;19.83;12.87;;;4.90;99.90;;;;;;5035245;28;20543;-48
2023/04/28 00:26:19;;;;;;;27.53;14.13;;;5.00;99.90;;;;;;5035601;28;20242;-48
2023/04/28 00:28:45;;;;;;;23.13;14.33;;;5.00;99.90;;;;;;5035231;28;20616;-49
2023/04/28 00:31:12;;;;;;;24.77;14.77;;;5.20;99.90;;;;;;5034701;28;20187;-49
2023/04/28 00:33:38;;;;;;;24.03;12.90;;;5.20;99.90;;;;;;5035127;28;20183;-48
2023/04/28 00:36:04;;;;;;;20.27;12.90;;;5.20;31.30;;;;;;5035342;28;20476;-48
2023/04/28 00:38:30;;;;;;;18.60;12.57;;;5.20;1.00;;;;;;5034996;28;20768;-48
2023/04/28 00:40:55;;;;;;;23.30;13.53;;;5.20;1.00;;;;;;5035155;28;20417;-48
2023/04/28 00:43:21;;;;;;;22.87;12.23;;;5.20;1.00;;;;;;5034894;28;20286;-48
2023/04/28 00:45:48;;;;;;;18.50;12.20;;;5.10;1.00;;;;;;5034851;28;20212;-48
2023/04/28 00:48:14;;;;;;;21.40;13.57;;;5.10;1.00;;;;;;5034425;28;20242;-49
2023/04/28 00:50:41;;;;;;;24.27;13.60;;;5.00;1.00;;;;;;5035362;28;20425;-48
2023/04/28 00:53:07;;;;;;;23.23;13.27;;;5.10;1.00;;;;;;5034914;28;20185;-49
2023/04/28 00:55:34;;;;;;;20.70;12.40;;;5.10;1.00;;;;;;5034873;28;20916;-48
2023/04/28 00:58:01;;;;;;;17.47;11.70;;;5.30;1.00;;;;;;5034549;28;20589;-49
2023/04/28 01:00:26;;;;;;;20.40;12.77;;;5.30;99.90;;;;;;5034436;28;20414;-48
2023/04/28 01:02:53;;;;;;;22.00;12.50;;;5.30;99.90;;;;;;5034514;28;20421;-48
2023/04/28 01:05:19;;;;;;;20.07;11.57;;;5.30;99.90;;;;;;5034486;28;20207;-48
2023/04/28 01:07:45;;;;;;;23.73;13.10;;;5.30;99.90;;;;;;5034457;28;20414;-49
2023/04/28 01:10:10;;;;;;;20.17;12.30;;;5.20;99.90;;;;;;5034639;28;20456;-49
2023/04/28 01:12:36;;;;;;;24.47;12.53;;;5.20;99.90;;;;;;5034610;28;20175;-48
2023/04/28 01:15:02;;;;;;;22.07;13.03;;;5.20;99.90;;;;;;5034581;28;20175;-48
2023/04/28 01:17:27;;;;;;;20.13;12.10;;;5.20;99.90;;;;;;5034686;28;20225;-48
2023/04/28 01:19:53;;;;;;;18.80;11.93;;;5.20;99.90;;;;;;5034393;28;20425;-49
2023/04/28 01:22:19;;;;;;;20.30;11.57;;;5.20;99.90;;;;;;5034666;28;20616;-49
2023/04/28 01:24:44;;;;;;;19.73;12.53;;;5.20;99.90;;;;;;5033923;28;20172;-48
2023/04/28 01:27:10;;;;;;;27.73;12.23;;;5.20;99.90;;;;;;5034357;28;20254;-48
2023/04/28 01:29:36;;;;;;;23.87;12.30;;;5.20;99.90;;;;;;5033942;28;20517;-48
2023/04/28 01:32:02;;;;;;;18.70;11.57;;;5.20;99.90;;;;;;5034174;28;20424;-48
2023/04/28 01:34:27;;;;;;;21.57;11.67;;;5.30;99.90;;;;;;5034043;28;20184;-48
2023/04/28 01:36:53;;;;;;;18.13;11.27;;;5.30;99.90;;;;;;5033860;28;20422;-48
2023/04/28 01:39:19;;;;;;;16.83;10.63;;;5.30;99.90;;;;;;5033703;28;20270;-48
2023/04/28 01:41:44;;;;;;;24.90;12.90;;;5.30;99.90;;;;;;5033335;28;20183;-48
2023/04/28 01:44:11;;;;;;;19.07;11.33;;;5.20;99.90;;;;;;5034042;28;20636;-48
2023/04/28 01:46:37;;;;;;;20.67;11.83;;;5.10;99.90;;;;;;5033617;28;20296;-48
2023/04/28 01:49:03;;;;;;;18.23;11.40;;;5.20;99.90;;;;;;5033490;28;20565;-48
2023/04/28 01:51:28;;;;;;;21.20;11.63;;;5.20;99.90;;;;;;5033786;28;20188;-48
2023/04/28 01:53:54;;;;;;;16.57;11.07;;;5.10;99.90;;;;;;5033568;28;20206;-48
2023/04/28 01:56:20;;;;;;;17.50;11.20;;;5.00;99.90;;;;;;5033539;28;20236;-48
2023/04/28 01:58:45;;;;;;;19.23;10.80;;;5.00;99.90;;;;;;5033293;28;20222;-49
2023/04/28 02:01:11;;;;;;;21.00;11.97;;;4.90;99.90;;;;;;5033335;28;20448;-48
2023/04/28 02:03:36;;;;;;;19.53;11.30;;;4.80;99.90;;;;;;5033872;28;20175;-48
2023/04/28 02:06:03;;;;;;;25.60;12.13;;;4.70;99.90;;;;;;5033450;28;20618;-48
2023/04/28 02:08:29;;;;;;;21.20;11.93;;;4.60;99.90;;;;;;5033496;28;20190;-48
2023/04/28 02:10:56;;;;;;;25.40;12.37;;;4.60;99.90;;;;;;5033454;28;20418;-48
2023/04/28 02:13:22;;;;;;;19.93;12.17;;;4.60;99.90;;;;;;5033522;28;20195;-48
2023/04/28 02:15:48;;;;;;;20.43;11.67;;;4.60;99.90;;;;;;5033713;28;20421;-48
2023/04/28 02:18:13;;;;;;;16.93;11.10;;;4.50;99.90;;;;;;5033610;28;20182;-48
2023/04/28 02:20:39;;;;;;;16.40;11.10;;;4.50;99.90;;;;;;5033192;28;20179;-48
2023/04/28 02:23:05;;;;;;;22.07;12.20;;;4.40;99.90;;;;;;5033410;28;20193;-48
2023/04/28 02:25:31;;;;;;;21.30;11.70;;;4.40;99.90;;;;;;5033210;28;20458;-48
2023/04/28 02:27:56;;;;;;;18.07;11.90;;;4.30;99.90;;;;;;5033446;28;20186;-48
2023/04/28 02:30:22;;;;;;;17.87;11.77;;;4.20;99.90;;;;;;5033384;28;20241;-48
2023/04/28 02:32:47;;;;;;;27.70;11.73;;;4.20;99.90;;;;;;5033431;28;20209;-48
2023/04/28 02:35:13;;;;;;;20.37;12.80;;;4.10;99.90;;;;;;5033217;28;20533;-50
2023/04/28 02:37:39;;;;;;;21.87;11.50;;;4.10;99.90;;;;;;5032963;28;20619;-48
2023/04/28 02:40:05;;;;;;;21.00;13.17;;;4.10;1.00;;;;;;5032941;28;20191;-47
2023/04/28 02:42:31;;;;;;;23.27;12.33;;;4.20;1.00;;;;;;5033377;28;20209;-49
2023/04/28 02:44:57;;;;;;;21.30;11.57;;;4.20;1.00;;;;;;5033170;28;20449;-48
2023/04/28 02:47:22;;;;;;;20.30;12.13;;;4.10;99.90;;;;;;5032946;28;20235;-49
2023/04/28 02:49:48;;;;;;;19.93;11.53;;;4.00;99.90;;;;;;5033404;28;20632;-48
2023/04/28 02:52:14;;;;;;;21.13;12.03;;;4.00;99.90;;;;;;5033499;28;20894;-48
2023/04/28 02:54:40;;;;;;;25.20;12.00;;;3.90;1.00;;;;;;5036584;28;20567;-48
2023/04/28 02:57:05;;;;;;;19.57;11.47;;;3.90;1.00;;;;;;5037296;28;20187;-48
2023/04/28 02:59:31;;;;;;;22.07;12.50;;;3.90;1.00;;;;;;5037036;28;20191;-48
2023/04/28 03:01:57;;;;;;;18.90;12.20;;;3.80;1.00;;;;;;5036891;28;20532;-48
2023/04/28 03:04:22;;;;;;;24.87;11.63;;;3.80;1.00;;;;;;5036524;28;20184;-48
2023/04/28 03:06:48;;;;;;;18.03;11.50;;;3.70;1.00;;;;;;5036842;28;20212;-48
2023/04/28 03:09:14;;;;;;;24.20;12.87;;;3.70;1.00;;;;;;5037075;28;20627;-48
2023/04/28 03:11:40;;;;;;;22.50;12.77;;;3.70;1.00;;;;;;5036931;28;20179;-48
2023/04/28 03:14:06;;;;;;;24.67;11.70;;;3.80;1.00;;;;;;5036897;28;20421;-48
2023/04/28 03:16:32;;;;;;;20.20;12.53;;;3.70;1.00;;;;;;5036611;28;20190;-48
2023/04/28 03:18:57;;;;;;;19.37;11.23;;;3.70;1.00;;;;;;5036839;28;20210;-47
2023/04/28 03:21:25;;;;;;;18.60;10.70;;;3.70;1.00;;;;;;5036195;28;20461;-48
2023/04/28 03:23:50;;;;;;;21.90;11.67;;;3.60;1.00;;;;;;5036596;28;20529;-48
2023/04/28 03:26:16;;;;;;;23.73;12.07;;;3.60;19.30;;;;;;5036131;28;20499;-48
2023/04/28 03:28:42;;;;;;;19.00;10.77;;;3.60;99.90;;;;;;5036258;28;20194;-48
2023/04/28 03:31:07;;;;;;;23.20;11.30;;;3.60;99.90;;;;;;5036587;28;20308;-48
2023/04/28 03:33:33;;;;;;;21.93;11.10;;;3.60;99.90;;;;;;5036299;28;20175;-48
2023/04/28 03:35:58;;;;;;;23.10;11.90;;;3.60;99.90;;;;;;5036387;28;20270;-49
2023/04/28 03:38:24;;;;;;;19.77;10.90;;;3.60;99.90;;;;;;5036280;28;20196;-48
2023/04/28 03:40:49;;;;;;;16.57;10.83;;;3.60;99.90;;;;;;5036269;28;20179;-48
2023/04/28 03:43:16;;;;;;;18.40;11.13;;;3.60;99.90;;;;;;5036135;28;20544;-48
2023/04/28 03:45:41;;;;;;;20.97;9.80;;;3.60;99.90;;;;;;5036268;28;20236;-48
2023/04/28 03:48:07;;;;;;;19.90;11.77;;;3.70;99.90;;;;;;5035971;28;20470;-48
2023/04/28 03:50:32;;;;;;;21.30;12.03;;;3.70;99.90;;;;;;5035827;28;20613;-48
2023/04/28 03:52:58;;;;;;;18.93;11.70;;;3.70;99.90;;;;;;5035892;28;20183;-47
2023/04/28 03:55:24;;;;;;;20.20;11.67;;;3.70;99.90;;;;;;5035644;28;20185;-49
2023/04/28 03:57:50;;;;;;;20.83;10.60;;;3.70;99.90;;;;;;5036147;28;20195;-48
2023/04/28 04:00:16;;;;;;;18.97;10.73;;;3.80;99.90;;;;;;5035789;28;20424;-48
2023/04/28 04:02:42;;;;;;;16.27;9.20;;;3.80;1.00;;;;;;5035787;28;20414;-48
2023/04/28 04:05:07;;;;;;;15.20;10.20;;;3.90;1.00;;;;;;5034835;28;20179;-48
2023/04/28 04:07:33;;;;;;;17.00;9.47;;;3.90;1.00;;;;;;5035254;28;20175;-47
2023/04/28 04:09:58;;;;;;;17.27;10.23;;;3.90;1.00;;;;;;5035628;28;20186;-48
2023/04/28 04:12:24;;;;;;;16.10;10.03;;;3.90;1.00;;;;;;5035968;28;20183;-48
2023/04/28 04:14:50;;;;;;;18.20;9.93;;;4.00;1.00;;;;;;5035855;28;20590;-47
2023/04/28 04:17:15;;;;;;;18.17;9.47;;;4.00;1.00;;;;;;5035545;28;20238;-48
2023/04/28 04:19:41;;;;;;;16.10;9.50;;;4.10;1.00;;;;;;5035706;28;20340;-48
2023/04/28 04:22:07;;;;;;;15.33;10.00;;;4.20;1.00;;;;;;5035419;28;20667;-48
2023/04/28 04:24:32;;;;;;;13.20;8.90;;;4.20;99.90;;;;;;5035440;28;20207;-48
2023/04/28 04:26:58;;;;;;;17.23;9.53;;;4.30;99.90;;;;;;5035231;28;20219;-49
2023/04/28 04:29:24;;;;;;;16.77;9.70;;;4.40;99.90;;;;;;5035086;28;20647;-48
2023/04/28 04:31:49;;;;;;;16.37;9.87;;;4.40;99.90;;;;;;5035271;28;20171;-48
2023/04/28 04:34:15;;;;;;;16.50;9.40;;;4.40;99.90;;;;;;5035320;28;20640;-48
2023/04/28 04:36:40;;;;;;;20.50;11.03;;;4.50;99.90;;;;;;5035403;28;20532;-48
2023/04/28 04:39:06;;;;;;;16.40;9.70;;;4.50;99.90;;;;;;5034838;28;20178;-48
2023/04/28 04:41:31;;;;;;;16.70;9.47;;;4.60;99.90;;;;;;5034455;28;20206;-49
2023/04/28 04:43:57;;;;;;;14.73;8.97;;;4.60;99.90;;;;;;5035192;28;20172;-48
2023/04/28 04:46:23;;;;;;;13.97;8.37;;;4.80;99.90;;;;;;5035157;28;20596;-48
2023/04/28 04:48:48;;;;;;;14.23;9.07;;;4.80;72.00;;;;;;5034514;28;20314;-48
2023/04/28 04:51:14;;;;;;;14.63;8.80;;;4.80;56.80;;;;;;5034853;28;20651;-48
2023/04/28 04:53:40;;;;;;;12.73;8.60;;;4.90;28.70;;;;;;5035046;28;20184;-48
2023/04/28 04:56:06;;;;;;;12.97;8.50;;;5.00;16.90;;;;;;5034897;28;20187;-48
2023/04/28 04:58:32;;;;;;;17.13;9.17;;;5.00;1.00;;;;;;5034998;28;20421;-48
2023/04/28 05:00:57;;;;;;;14.70;8.57;;;5.00;1.00;;;;;;5034731;28;20493;-48
2023/04/28 05:03:23;;;;;;;16.03;8.50;;;5.20;1.00;;;;;;5034196;28;20274;-48
2023/04/28 05:05:49;;;;;;;12.63;8.30;;;5.20;1.00;;;;;;5034558;28;20216;-48
2023/04/28 05:08:14;;;;;;;11.60;7.63;;;5.30;1.00;;;;;;5034836;28;20186;-49
2023/04/28 05:10:40;;;;;;;14.17;8.63;;;5.40;1.00;;;;;;5034511;28;20182;-49
2023/04/28 05:13:06;;;;;;;14.63;8.30;;;5.40;1.00;;;;;;5034260;28;20182;-48
2023/04/28 05:15:31;;;;;;;15.07;8.10;;;5.40;1.00;;;;;;5034495;28;20628;-49
2023/04/28 05:17:57;;;;;;;16.70;10.03;;;5.50;1.00;;;;;;5034443;28;20205;-49
2023/04/28 05:20:23;;;;;;;13.20;8.60;;;5.60;1.00;;;;;;5034609;28;20182;-49
2023/04/28 05:22:49;;;;;;;14.73;7.90;;;5.60;1.00;;;;;;5034039;28;20202;-49
2023/04/28 05:25:15;;;;;;;11.83;7.13;;;5.70;1.00;;;;;;5034070;28;20198;-49
2023/04/28 05:27:40;;;;;;;14.83;8.20;;;5.80;1.00;;;;;;5034095;28;20187;-49
2023/04/28 05:30:07;;;;;;;11.77;7.53;;;5.90;1.00;;;;;;5034360;28;20500;-49
2023/04/28 05:32:34;;;;;;;13.03;7.20;;;6.00;1.00;;;;;;5033739;28;20663;-48
2023/04/28 05:34:59;;;;;;;11.77;7.30;;;6.10;1.00;;;;;;5034226;28;20414;-48
2023/04/28 05:37:25;;;;;;;11.73;7.13;;;6.20;1.00;;;;;;5033954;28;20483;-48
2023/04/28 05:39:51;;;;;;;15.70;7.13;;;6.30;1.00;;;;;;5033647;28;20576;-48
2023/04/28 05:42:16;;;;;;;14.13;7.47;;;6.40;1.00;;;;;;5033807;28;20797;-48
2023/04/28 05:44:42;;;;;;;12.30;7.50;;;6.50;1.00;;;;;;5034240;28;20184;-49
2023/04/28 05:47:07;;;;;;;9.97;6.83;;;6.80;1.00;;;;;;5034278;28;20211;-48
2023/04/28 05:49:33;;;;;;;8.93;6.77;;;7.00;1.00;;;;;;5034085;28;20183;-48
2023/04/28 05:51:59;;;;;;;10.30;6.63;;;7.30;1.00;;;;;;5034141;28;20488;-47
2023/04/28 05:54:24;;;;;;;10.50;6.47;;;7.60;1.00;;;;;;5034115;28;20534;-49
2023/04/28 05:56:50;;;;;;;8.80;6.10;;;7.80;1.00;;;;;;5034198;28;20201;-50
2023/04/28 05:59:17;;;;;;;13.20;5.80;;;8.00;1.00;;;;;;5034085;28;20589;-50
2023/04/28 06:01:42;;;;;;;11.00;6.90;;;8.20;1.00;;;;;;5034135;28;20186;-50
2023/04/28 06:04:08;;;;;;;9.70;5.80;;;8.40;1.00;;;;;;5034274;28;20907;-50
2023/04/28 06:06:33;;;;;;;7.60;5.60;;;8.60;1.00;;;;;;5033514;28;20556;-48
2023/04/28 06:08:59;;;;;;;6.13;5.17;;;8.70;1.00;;;;;;5033708;28;20194;-49
2023/04/28 06:11:25;;;;;;;15.67;6.30;;;8.80;1.00;;;;;;5033778;28;20189;-49
2023/04/28 06:13:50;;;;;;;10.13;5.57;;;8.80;1.00;;;;;;5034052;28;20642;-49
2023/04/28 06:16:16;;;;;;;10.60;6.37;;;8.90;1.00;;;;;;5033754;28;20579;-49
2023/04/28 06:18:42;;;;;;;8.40;5.40;;;9.10;1.00;;;;;;5033646;28;20190;-50
2023/04/28 06:21:08;;;;;;;11.17;5.70;;;9.20;1.00;;;;;;5033546;28;20418;-50
2023/04/28 06:23:34;;;;;;;10.40;5.40;;;9.50;1.00;;;;;;5033446;28;20549;-49
2023/04/28 06:26:00;;;;;;;12.97;5.60;;;9.70;1.00;;;;;;5033556;28;20214;-48
2023/04/28 06:28:25;;;;;;;7.47;4.60;;;9.80;1.00;;;;;;5034737;28;20422;-49
2023/04/28 06:30:51;;;;;;;9.43;4.43;;;10.00;1.00;;;;;;5037670;28;20183;-49
2023/04/28 06:33:16;;;;;;;8.37;4.67;;;10.20;1.00;;;;;;5037610;28;20178;-49
2023/04/28 06:35:42;;;;;;;10.50;5.00;;;10.30;1.00;;;;;;5037564;28;20248;-49
2023/04/28 06:38:08;;;;;;;6.23;5.17;;;10.40;1.00;;;;;;5037343;28;20175;-49
2023/04/28 06:40:33;;;;;;;6.60;4.70;;;10.50;1.00;;;;;;5037368;28;20179;-49
2023/04/28 06:42:59;;;;;;;7.73;4.40;;;10.60;1.00;;;;;;5037001;28;20176;-49
2023/04/28 06:45:25;;;;;;;7.87;4.57;;;10.80;1.00;;;;;;5037324;28;20191;-49
2023/04/28 06:47:54;;;;;;;9.80;4.90;;;11.10;1.00;;;;;;5035381;28;20652;-49
2023/04/28 06:50:20;;;;;;;11.40;4.00;;;11.20;1.00;;;;;;5037597;28;20413;-49
2023/04/28 06:52:46;;;;;;;13.67;5.30;;;11.20;1.00;;;;;;5037287;28;20423;-49
2023/04/28 06:55:15;;;;;;;5.43;4.50;;;11.20;1.00;;;;;;5037277;28;20430;-49
2023/04/28 06:57:41;;;;;;;6.70;4.57;;;11.40;1.00;;;;;;5037484;28;20194;-49
2023/04/28 07:00:07;;;;;;;6.63;4.40;;;11.50;1.00;;;;;;5037435;28;20417;-49
2023/04/28 07:02:33;;;;;;;7.27;4.33;;;11.70;1.00;;;;;;5036625;28;20179;-49
2023/04/28 07:04:59;;;;;;;10.10;4.80;;;11.80;1.00;;;;;;5037409;28;20422;-48
2023/04/28 07:07:25;;;;;;;8.50;4.23;;;12.00;1.00;;;;;;5037163;28;20511;-49
2023/04/28 07:09:52;;;;;;;5.03;4.23;;;12.20;1.00;;;;;;5036928;28;20183;-49
2023/04/28 07:12:18;;;;;;;6.83;4.00;;;12.30;1.00;;;;;;5036743;28;20625;-49
2023/04/28 07:14:43;;;;;;;12.73;4.17;;;12.60;1.00;;;;;;5036640;28;20424;-49
2023/04/28 07:17:09;;;;;;;5.53;3.97;;;12.80;1.00;;;;;;5036635;28;20719;-49
2023/04/28 07:19:35;;;;;;;6.17;3.93;;;12.80;1.00;;;;;;5036331;28;20675;-49
2023/04/28 07:22:00;;;;;;;6.87;4.00;;;13.00;1.00;;;;;;5036682;28;20416;-49
2023/04/28 07:24:27;;;;;;;7.23;4.20;;;13.20;1.00;;;;;;5036966;28;20176;-49
2023/04/28 07:26:52;;;;;;;7.00;4.20;;;13.40;1.00;;;;;;5035617;28;20334;-49
2023/04/28 07:29:18;;;;;;;7.40;4.17;;;13.80;1.00;;;;;;5036726;28;20949;-49
2023/04/28 07:31:44;;;;;;;9.33;4.47;;;14.00;1.00;;;;;;5036564;28;20177;-49
2023/04/28 07:34:09;;;;;;;10.80;4.67;;;14.20;1.00;;;;;;5036563;28;20211;-49
2023/04/28 07:36:35;;;;;;;5.63;3.60;;;14.50;1.00;;;;;;5036663;28;20187;-50
2023/04/28 07:39:01;;;;;;;5.27;4.00;;;14.40;1.00;;;;;;5035873;28;20267;-49
2023/04/28 07:41:27;;;;;;;11.13;4.57;;;14.50;1.00;;;;;;5035631;28;20184;-49
2023/04/28 07:43:53;;;;;;;9.93;4.40;;;14.60;1.00;;;;;;5036452;28;20188;-49
2023/04/28 07:46:19;;;;;;;11.80;4.10;;;14.90;1.00;;;;;;5036223;28;20459;-49
2023/04/28 07:48:44;;;;;;;8.97;4.80;;;15.20;99.90;;;;;;5035551;28;20704;-49
2023/04/28 07:51:10;;;;;;;7.40;4.23;;;15.50;99.90;;;;;;5036148;28;20195;-49
2023/04/28 07:53:36;;;;;;;5.70;3.90;;;15.60;99.90;;;;;;5036169;28;20646;-49
2023/04/28 07:56:02;;;;;;;7.60;4.40;;;15.70;99.90;;;;;;5036139;28;20431;-50
2023/04/28 07:58:28;;;;;;;7.13;4.17;;;15.90;99.90;;;;;;5036052;28;20180;-49
2023/04/28 08:00:53;;;;;;;9.23;4.30;;;15.70;99.90;;;;;;5036062;28;20192;-49
2023/04/28 08:03:20;;;;;;;8.23;4.30;;;15.70;99.90;;;;;;5035975;28;20183;-49
2023/04/28 08:05:45;;;;;;;11.90;4.33;;;15.70;99.90;;;;;;5035883;28;20703;-49
2023/04/28 08:08:11;;;;;;;9.90;4.10;;;15.90;99.90;;;;;;5035871;28;20424;-49
2023/04/28 08:10:39;;;;;;;10.10;4.00;;;16.00;99.90;;;;;;5036017;28;20184;-50
2023/04/28 08:13:05;;;;;;;7.97;3.83;;;15.90;99.90;;;;;;5036200;28;20193;-49
2023/04/28 08:15:30;;;;;;;4.47;3.73;;;15.80;99.90;;;;;;5035347;28;20427;-49
2023/04/28 08:17:56;;;;;;;7.23;4.07;;;15.40;99.90;;;;;;5036044;28;20185;-49
2023/04/28 08:20:21;;;;;;;6.63;4.27;;;15.20;99.90;;;;;;5035332;28;20644;-49
2023/04/28 08:22:47;;;;;;;12.10;4.50;;;15.10;99.90;;;;;;5035381;28;20279;-49
2023/04/28 08:25:13;;;;;;;10.20;4.10;;;15.00;99.90;;;;;;5035787;28;20184;-49
2023/04/28 08:27:38;;;;;;;6.90;4.47;;;14.90;99.90;;;;;;5035560;28;20224;-49
2023/04/28 08:30:07;;;;;;;8.03;4.80;;;15.10;99.90;;;;;;5035917;28;20679;-49
2023/04/28 08:32:32;;;;;;;8.60;4.03;;;15.30;99.90;;;;;;5035604;28;20516;-49
2023/04/28 08:34:59;;;;;;;9.13;4.50;;;15.30;1.00;;;;;;5035409;28;20952;-49
2023/04/28 08:37:25;;;;;;;7.03;4.10;;;15.40;99.90;;;;;;5035758;28;20187;-49
2023/04/28 08:39:58;;;;;;;6.27;4.37;;;15.40;99.90;;;;;;5035404;28;20493;-49
2023/04/28 08:42:28;;;;;;;10.80;5.10;;;15.40;99.90;;;;;;5035294;28;20406;-50
2023/04/28 08:45:00;;;;;;;6.90;4.30;;;14.90;99.90;;;;;;5035323;28;20414;-49
2023/04/28 08:47:38;;;;;;;5.73;4.60;;;14.70;99.90;;;;;;5035144;28;20485;-49
2023/04/28 08:50:05;;;;;;;9.17;4.70;;;14.50;99.90;;;;;;5034473;28;20780;-49
2023/04/28 08:52:31;;;;;;;5.73;4.30;;;14.60;99.90;;;;;;5034959;28;20437;-49
2023/04/28 08:55:04;;;;;;;7.17;4.50;;;14.70;99.90;;;;;;5035270;28;20754;-49
2023/04/28 08:57:43;;;;;;;9.20;4.97;;;14.80;99.90;;;;;;5034968;28;20172;-50
2023/04/28 09:00:10;;;;;;;7.03;4.70;;;14.90;99.90;;;;;;5035250;28;20521;-49
2023/04/28 09:02:36;;;;;;;7.73;4.80;;;15.20;99.90;;;;;;5034664;28;20904;-49
2023/04/28 09:05:12;;;;;;;11.00;4.93;;;15.30;99.90;;;;;;5034464;28;20484;-49
2023/04/28 09:07:38;;;;;;;11.23;4.50;;;15.10;99.90;;;;;;5034580;28;20462;-49
2023/04/28 09:10:24;;;;;;;7.90;4.50;;;15.20;99.90;;;;;;5034445;28;20418;-49
2023/04/28 09:12:56;;;;;;;9.13;4.80;;;15.20;99.90;;;;;;5034900;28;20413;-49
2023/04/28 09:15:33;;;;;;;5.70;4.30;;;15.10;99.90;;;;;;5034729;28;20734;-50
2023/04/28 09:18:00;;;;;;;8.43;4.80;;;15.00;99.90;;;;;;5034668;28;20457;-49
2023/04/28 09:20:28;;;;;;;14.30;4.73;;;14.90;99.90;;;;;;5034347;28;20418;-49
2023/04/28 09:22:55;;;;;;;7.73;5.20;;;15.00;99.90;;;;;;5034734;28;20774;-50
2023/04/28 09:25:22;;;;;;;8.50;4.90;;;14.90;99.90;;;;;;5034499;28;20412;-49
2023/04/28 09:27:49;;;;;;;10.03;5.33;;;14.80;99.90;;;;;;5034423;28;20421;-49
2023/04/28 09:30:15;;;;;;;11.13;5.00;;;14.70;99.90;;;;;;5034781;28;20488;-49
2023/04/28 09:32:40;;;;;;;7.40;5.60;;;14.60;99.90;;;;;;5034552;28;20407;-49
2023/04/28 09:35:07;;;;;;;8.97;4.50;;;14.60;99.90;;;;;;5034613;28;20929;-49
2023/04/28 09:37:33;;;;;;;9.17;4.70;;;14.90;99.90;;;;;;5034439;28;20647;-49
2023/04/28 09:40:10;;;;;;;7.90;4.70;;;15.20;99.90;;;;;;5034105;28;20758;-49
2023/04/28 09:42:41;;;;;;;6.53;4.40;;;15.30;99.90;;;;;;5034340;28;20418;-49
2023/04/28 09:45:11;;;;;;;7.27;4.97;;;15.30;99.90;;;;;;5033936;28;20459;-49
2023/04/28 09:47:42;;;;;;;8.67;4.83;;;15.40;99.90;;;;;;5034080;28;20491;-49
2023/04/28 09:50:13;;;;;;;5.70;5.00;;;15.70;99.90;;;;;;5034317;28;20451;-48
2023/04/28 09:52:40;;;;;;;10.67;5.00;;;16.00;99.90;;;;;;5034306;28;20751;-49
2023/04/28 09:55:07;;;;;;;12.80;5.70;;;16.40;99.90;;;;;;5033727;28;20434;-49
2023/04/28 09:57:35;;;;;;;7.00;5.17;;;16.60;99.90;;;;;;5033945;28;20423;-49
2023/04/28 10:00:04;;;;;;;10.47;5.67;;;16.50;99.90;;;;;;5034132;28;20416;-49
2023/04/28 10:02:31;;;;;;;10.60;4.90;;;16.40;99.90;;;;;;5033123;28;20411;-49
2023/04/28 10:04:57;;;;;;;8.13;5.10;;;16.50;99.90;;;;;;5034137;28;20476;-49
2023/04/28 10:07:23;;;;;;;7.37;5.10;;;16.30;99.90;;;;;;5033790;28;20840;-49
2023/04/28 10:09:50;;;;;;;9.83;5.23;;;16.30;99.90;;;;;;5033741;28;20807;-49
2023/04/28 10:12:22;;;;;;;12.20;5.40;;;16.20;99.90;;;;;;5034147;28;20271;-49
2023/04/28 10:14:49;;;;;;;7.27;4.60;;;16.00;99.90;;;;;;5033558;28;20426;-49
2023/04/28 10:17:16;;;;;;;9.73;4.57;;;15.90;99.90;;;;;;5033993;28;20749;-49
2023/04/28 10:19:43;;;;;;;8.13;4.70;;;15.90;99.90;;;;;;5033791;28;20964;-48
2023/04/28 10:22:18;;;;;;;11.00;5.40;;;15.80;99.90;;;;;;5033903;28;20432;-49
2023/04/28 10:25:07;;;;;;;10.53;5.33;;;15.70;99.90;;;;;;5033870;28;20435;-48
2023/04/28 10:27:33;;;;;;;6.23;4.60;;;15.60;99.90;;;;;;5032860;28;20476;-48
2023/04/28 10:30:20;;;;;;;10.50;5.30;;;15.60;99.90;;;;;;5033172;28;20435;-49
2023/04/28 10:32:46;;;;;;;8.83;5.17;;;15.60;99.90;;;;;;5033947;28;20798;-49
2023/04/28 10:35:23;;;;;;;13.20;5.23;;;15.80;99.90;;;;;;5033781;28;20418;-49
2023/04/28 10:38:07;;;;;;;8.80;5.50;;;15.70;99.90;;;;;;5033574;28;20422;-48
2023/04/28 10:40:40;;;;;;;7.00;5.60;;;15.70;99.90;;;;;;5033167;28;20423;-49
2023/04/28 10:43:07;;;;;;;8.87;5.23;;;15.70;99.90;;;;;;5033449;28;20431;-49
2023/04/28 10:45:59;;;;;;;7.17;5.40;;;15.60;99.90;;;;;;5033565;28;20482;-49
2023/04/28 10:48:28;;;;;;;10.13;5.73;;;15.70;99.90;;;;;;5033306;28;20481;-49
2023/04/28 10:51:06;;;;;;;9.23;5.23;;;15.70;99.90;;;;;;5033578;28;20425;-49
2023/04/28 10:53:43;;;;;;;10.70;5.83;;;15.80;99.90;;;;;;5033582;28;20430;-49
2023/04/28 10:56:23;;;;;;;10.33;5.33;;;15.90;99.90;;;;;;5033153;28;20432;-49
2023/04/28 10:58:53;;;;;;;9.50;5.83;;;15.90;99.90;;;;;;5033603;28;20427;-49
2023/04/28 11:01:25;;;;;;;11.33;6.00;;;16.10;99.90;;;;;;5033095;28;20419;-49
2023/04/28 11:04:12;;;;;;;10.90;5.50;;;16.30;99.90;;;;;;5033431;28;20404;-49
2023/04/28 11:06:39;;;;;;;9.23;6.40;;;16.30;99.90;;;;;;5033206;28;20524;-48
2023/04/28 11:09:14;;;;;;;11.30;6.13;;;16.50;99.90;;;;;;5033505;28;20431;-49
2023/04/28 11:11:58;;;;;;;11.10;5.53;;;16.50;99.90;;;;;;5033436;28;20415;-49
2023/04/28 11:14:24;;;;;;;8.50;5.67;;;16.50;99.90;;;;;;5034403;28;20434;-49
2023/04/28 11:16:54;;;;;;;9.33;6.17;;;16.30;99.90;;;;;;5036901;28;20435;-49
2023/04/28 11:19:28;;;;;;;9.63;6.03;;;16.20;99.90;;;;;;5036713;28;20182;-49
2023/04/28 11:21:56;;;;;;;6.90;5.30;;;16.30;99.90;;;;;;5037078;28;20420;-49
2023/04/28 11:24:26;;;;;;;13.77;6.20;;;16.40;99.90;;;;;;5036798;28;20507;-49
2023/04/28 11:26:52;;;;;;;8.00;5.47;;;16.50;99.90;;;;;;5036639;28;20494;-49
2023/04/28 11:29:39;;;;;;;7.17;5.20;;;16.60;99.90;;;;;;5036283;28;20980;-49
2023/04/28 11:32:09;;;;;;;12.33;6.10;;;16.50;99.90;;;;;;5036946;28;20409;-49
2023/04/28 11:34:35;;;;;;;10.07;5.40;;;16.50;99.90;;;;;;5036529;28;20523;-49
2023/04/28 11:37:02;;;;;;;9.37;6.27;;;16.60;99.90;;;;;;5036428;28;20427;-49
2023/04/28 11:39:31;;;;;;;8.70;5.10;;;16.70;99.90;;;;;;5036253;28;20920;-49
2023/04/28 11:41:58;;;;;;;9.57;5.70;;;16.70;99.90;;;;;;5036637;28;20809;-49
2023/04/28 11:44:26;;;;;;;9.57;6.27;;;16.60;99.90;;;;;;5036479;28;20921;-49
2023/04/28 11:46:54;;;;;;;10.00;5.90;;;16.70;99.90;;;;;;5036345;28;20465;-49
2023/04/28 11:49:24;;;;;;;11.10;5.87;;;16.60;99.90;;;;;;5036768;28;20502;-49
2023/04/28 11:51:50;;;;;;;11.60;6.33;;;16.50;99.90;;;;;;5036263;28;20427;-49
2023/04/28 11:54:36;;;;;;;12.87;5.80;;;16.60;99.90;;;;;;5036127;28;20759;-48
2023/04/28 11:57:03;;;;;;;11.20;6.60;;;16.40;99.90;;;;;;5036498;28;20409;-49
2023/04/28 11:59:32;;;;;;;9.73;6.30;;;16.40;99.90;;;;;;5036150;28;20512;-49
2023/04/28 12:02:03;;;;;;;6.97;5.43;;;16.20;99.90;;;;;;5036026;28;20985;-48
2023/04/28 12:04:39;;;;;;;9.77;6.00;;;16.10;99.90;;;;;;5035675;28;20884;-49
2023/04/28 12:07:06;;;;;;;7.73;5.77;;;16.00;99.90;;;;;;5035954;28;20465;-49
2023/04/28 12:09:33;;;;;;;9.20;6.40;;;16.10;99.90;;;;;;5035793;28;20509;-49
2023/04/28 12:12:01;;;;;;;7.60;5.40;;;16.00;99.90;;;;;;5035754;28;20911;-49
2023/04/28 12:14:27;;;;;;;8.80;5.90;;;15.90;99.90;;;;;;5035641;28;20431;-49
2023/04/28 12:16:53;;;;;;;8.30;5.70;;;15.80;99.90;;;;;;5035583;28;20419;-49
2023/04/28 12:19:19;;;;;;;8.60;5.60;;;15.60;99.90;;;;;;5034490;28;20188;-49
2023/04/28 12:21:59;;;;;;;9.87;5.73;;;15.60;99.90;;;;;;5035964;28;20479;-50
2023/04/28 12:24:25;;;;;;;11.40;5.63;;;15.50;99.90;;;;;;5035917;28;20585;-50
2023/04/28 12:26:52;;;;;;;10.40;5.63;;;15.50;99.90;;;;;;5034978;28;20471;-49
2023/04/28 12:29:47;;;;;;;9.83;6.37;;;15.30;99.90;;;;;;5035549;28;20910;-50
2023/04/28 12:32:13;;;;;;;11.93;6.80;;;15.20;99.90;;;;;;5034702;28;20447;-50
2023/04/28 12:34:42;;;;;;;7.03;5.23;;;15.10;99.90;;;;;;5035341;28;20501;-50
2023/04/28 12:37:07;;;;;;;7.80;6.00;;;15.00;99.90;;;;;;5033926;28;20435;-49
2023/04/28 12:39:35;;;;;;;11.43;6.87;;;15.10;99.90;;;;;;5035387;28;20427;-50
2023/04/28 12:42:01;;;;;;;8.30;6.07;;;14.90;99.90;;;;;;5035444;28;20238;-51
2023/04/28 12:44:37;;;;;;;10.03;6.40;;;14.80;99.90;;;;;;5034014;28;20432;-50
2023/04/28 12:47:07;;;;;;;14.27;6.53;;;14.80;99.90;;;;;;5034712;28;21019;-50